createdAt,value
2023-04-16T00:01:33.893Z,151917.44
2023-04-16T00:04:17.150Z,151900.69
2023-04-16T00:06:54.055Z,151887.75
2023-04-16T00:09:40.994Z,151864.53
2023-04-16T00:15:09.665Z,151820.66
2023-04-16T00:17:53.081Z,151816.75
2023-04-16T00:20:44.477Z,151807.72
2023-04-16T00:23:23.028Z,151816.75
2023-04-16T00:26:06.491Z,151783.22
2023-04-16T00:35:01.088Z,151761.31
2023-04-16T00:37:44.355Z,151759.97
2023-04-16T00:40:33.690Z,151771.63
2023-04-16T00:43:09.833Z,151779.34
2023-04-16T00:52:24.818Z,151767.75
2023-04-16T00:55:00.226Z,151759.97
2023-04-16T01:00:41.148Z,151757.41
2023-04-16T01:03:16.384Z,151754.81
2023-04-16T01:11:53.475Z,151780.59
2023-04-16T01:23:25.870Z,151762.59
2023-04-16T01:26:04.739Z,151770.28
2023-04-16T01:31:44.435Z,151779.34
2023-04-16T01:34:48.708Z,151783.22
2023-04-16T01:37:23.809Z,151784.50
2023-04-16T01:46:33.160Z,151781.94
2023-04-16T01:49:17.289Z,151780.59
2023-04-16T01:51:57.157Z,151776.78
2023-04-16T01:54:28.966Z,151770.28
2023-04-16T01:57:03.910Z,151772.91
2023-04-16T01:59:35.461Z,151762.59
2023-04-16T02:02:11.798Z,151769.00
2023-04-16T02:04:44.400Z,151776.78
2023-04-16T02:10:06.525Z,151767.75
2023-04-16T02:12:42.311Z,151787.09
2023-04-16T02:15:20.807Z,151798.69
2023-04-16T02:17:57.994Z,151790.97
2023-04-16T02:20:30.349Z,151793.53
2023-04-16T02:23:05.056Z,151798.69
2023-04-16T02:25:41.680Z,151797.41
2023-04-16T02:28:22.014Z,151799.97
2023-04-16T02:31:01.456Z,151805.13
2023-04-16T02:39:48.495Z,151810.34
2023-04-16T02:52:42.990Z,151776.78
2023-04-16T02:58:31.925Z,151783.22
2023-04-16T03:01:08.212Z,151802.56
2023-04-16T03:03:45.802Z,151792.25
2023-04-16T03:06:24.572Z,151784.50
2023-04-16T03:08:57.291Z,151788.38
2023-04-16T03:11:30.737Z,151792.25
2023-04-16T03:14:01.842Z,151766.47
2023-04-16T03:16:36.344Z,151765.13
2023-04-16T03:19:20.584Z,151752.28
2023-04-16T03:22:00.837Z,151752.28
2023-04-16T03:24:36.718Z,151754.81
2023-04-16T03:30:02.016Z,151754.81
2023-04-16T03:32:40.238Z,151744.50
2023-04-16T03:35:53.778Z,151732.91
2023-04-16T03:38:56.753Z,151736.78
2023-04-16T03:42:02.065Z,151734.19
2023-04-16T03:44:50.767Z,151729.03
2023-04-16T03:47:39.566Z,151747.09
2023-04-16T03:53:15.323Z,151730.31
2023-04-16T03:55:47.450Z,151725.16
2023-04-16T03:58:21.506Z,151721.28
2023-04-16T04:00:52.961Z,151731.63
2023-04-16T04:03:24.026Z,151690.34
2023-04-16T04:05:55.141Z,151676.13
2023-04-16T04:08:32.346Z,151674.84
2023-04-16T04:11:02.999Z,151665.81
2023-04-16T04:13:37.519Z,151668.44
2023-04-16T04:16:09.281Z,151667.09
2023-04-16T04:18:40.323Z,151669.72
2023-04-16T04:21:11.760Z,151681.28
2023-04-16T04:23:42.763Z,151676.13
2023-04-16T04:26:13.889Z,151686.44
2023-04-16T04:28:48.685Z,151713.56
2023-04-16T04:31:21.780Z,151676.13
2023-04-16T04:33:52.532Z,151692.94
2023-04-16T04:36:23.508Z,151678.75
2023-04-16T04:38:54.618Z,151680.03
2023-04-16T04:41:27.626Z,151707.13
2023-04-16T04:44:02.071Z,151689.06
2023-04-16T04:46:32.929Z,151704.53
2023-04-16T04:49:03.609Z,151696.75
2023-04-16T04:51:35.503Z,151701.97
2023-04-16T04:54:06.191Z,151727.75
2023-04-16T04:56:37.138Z,151745.78
2023-04-16T04:59:11.319Z,151750.94
2023-04-16T05:01:43.264Z,151763.84
2023-04-16T05:04:14.861Z,151779.34
2023-04-16T05:06:45.306Z,151807.72
2023-04-16T05:09:16.324Z,151820.66
2023-04-16T05:11:47.318Z,151828.34
2023-04-16T05:14:21.648Z,151845.16
2023-04-16T05:16:52.934Z,151867.13
2023-04-16T05:19:23.786Z,151885.22
2023-04-16T05:21:54.549Z,151892.94
2023-04-16T05:24:26.390Z,151923.94
2023-04-16T05:26:57.118Z,151931.66
2023-04-16T05:29:30.844Z,151961.34
2023-04-16T05:32:02.335Z,151989.75
2023-04-16T05:34:33.197Z,151997.47
2023-04-16T05:37:04.161Z,152019.44
2023-04-16T05:39:35.001Z,152023.31
2023-04-16T05:42:08.553Z,152077.53
2023-04-16T05:44:44.106Z,152050.41
2023-04-16T05:47:14.552Z,152049.13
2023-04-16T05:49:46.857Z,152063.34
2023-04-16T05:52:17.368Z,152077.53
2023-04-16T05:54:48.300Z,152120.13
2023-04-16T05:57:19.448Z,152112.41
2023-04-16T05:59:53.055Z,152125.28
2023-04-16T06:02:24.365Z,152155.00
2023-04-16T06:04:56.064Z,152138.22
2023-04-16T06:07:27.283Z,152184.69
2023-04-16T06:09:57.981Z,152218.28
2023-04-16T06:12:30.156Z,152241.56
2023-04-16T06:15:04.848Z,152251.88
2023-04-16T06:17:36.500Z,152270.00
2023-04-16T06:20:08.263Z,152258.34
2023-04-16T06:22:41.908Z,152284.22
2023-04-16T06:25:13.516Z,152258.34
2023-04-16T07:16:27.371Z,152427.66
2023-04-16T07:22:16.177Z,152406.94
2023-04-16T07:24:53.338Z,152405.66
2023-04-16T07:27:40.084Z,152387.53
2023-04-16T07:30:16.556Z,152399.22
2023-04-16T07:33:01.294Z,152399.22
2023-04-16T07:35:49.333Z,152430.22
2023-04-16T07:41:18.976Z,152458.66
2023-04-16T07:44:05.721Z,152476.81
2023-04-16T07:46:50.343Z,152514.28
2023-04-16T07:49:40.514Z,152572.47
2023-04-16T07:52:18.473Z,152606.13
2023-04-16T07:55:01.028Z,152664.31
2023-04-16T08:03:39.832Z,152752.25
2023-04-16T08:09:10.532Z,152779.44
2023-04-16T08:11:41.898Z,152770.38
2023-04-16T08:14:12.872Z,152757.44
2023-04-16T08:16:47.058Z,152745.81
2023-04-16T08:19:18.220Z,152735.47
2023-04-16T08:21:52.074Z,152850.59
2023-04-16T08:24:22.870Z,152893.31
2023-04-16T08:27:15.446Z,152929.56
2023-04-16T08:29:50.863Z,153059.06
2023-04-16T08:32:25.716Z,153070.75
2023-04-16T08:35:06.197Z,153028.00
2023-04-16T08:37:40.463Z,153134.22
2023-04-16T08:40:18.238Z,153075.91
2023-04-16T08:42:57.740Z,153157.47
2023-04-16T08:45:34.946Z,153261.13
2023-04-16T08:48:08.499Z,153381.66
2023-04-16T08:50:42.189Z,153252.03
2023-04-16T08:53:28.393Z,153386.91
2023-04-16T08:56:03.874Z,153289.63
2023-04-16T08:58:37.387Z,153324.63
2023-04-16T09:01:13.190Z,153520.38
2023-04-16T09:03:57.400Z,153529.47
2023-04-16T09:06:30.297Z,153322.00
2023-04-16T09:09:08.626Z,153405.00
2023-04-16T09:11:44.812Z,153298.72
2023-04-16T09:14:16.890Z,153310.38
2023-04-16T09:16:48.959Z,153393.38
2023-04-16T09:19:22.409Z,153344.06
2023-04-16T09:21:55.355Z,153302.63
2023-04-16T09:24:30.278Z,153325.91
2023-04-16T09:27:02.191Z,153358.38
2023-04-16T09:29:46.282Z,153373.91
2023-04-16T09:32:17.829Z,153327.25
2023-04-16T09:35:06.132Z,153344.06
2023-04-16T09:37:42.073Z,153368.75
2023-04-16T09:40:33.710Z,153367.47
2023-04-16T09:43:14.045Z,153424.47
2023-04-16T09:45:55.584Z,153462.06
2023-04-16T09:48:33.483Z,153489.28
2023-04-16T09:51:07.798Z,153577.44
2023-04-16T09:53:39.699Z,153534.63
2023-04-16T09:56:16.147Z,153567.06
2023-04-16T09:58:47.962Z,153668.22
2023-04-16T10:01:22.000Z,153652.66
2023-04-16T10:03:57.053Z,153694.19
2023-04-16T10:06:29.479Z,153657.84
2023-04-16T10:09:02.510Z,153712.38
2023-04-16T10:11:36.823Z,153759.09
2023-04-16T10:14:11.414Z,153740.94
2023-04-16T10:16:44.595Z,153800.59
2023-04-16T10:19:16.128Z,153843.44
2023-04-16T10:21:47.116Z,153833.06
2023-04-16T10:24:21.574Z,153833.06
2023-04-16T10:26:58.241Z,153818.78
2023-04-16T10:29:34.700Z,153871.94
2023-04-16T10:32:17.574Z,153962.84
2023-04-16T10:34:49.921Z,153979.69
2023-04-16T10:37:21.836Z,153993.97
2023-04-16T10:39:56.999Z,153882.38
2023-04-16T10:42:31.772Z,153933.00
2023-04-16T10:45:04.708Z,153908.31
2023-04-16T10:47:36.737Z,153871.94
2023-04-16T10:50:21.046Z,153953.75
2023-04-16T10:52:54.893Z,153957.66
2023-04-16T10:55:32.745Z,153961.50
2023-04-16T10:58:27.835Z,153996.59
2023-04-16T11:01:05.819Z,154047.28
2023-04-16T11:03:38.812Z,154068.03
2023-04-16T11:06:22.082Z,154044.66
2023-04-16T11:09:08.516Z,154091.44
2023-04-16T11:11:44.130Z,154074.50
2023-04-16T11:14:30.698Z,154075.84
2023-04-16T11:17:07.340Z,154125.16
2023-04-16T11:19:41.268Z,154122.59
2023-04-16T11:22:18.821Z,154100.47
2023-04-16T11:24:57.432Z,154121.28
2023-04-16T11:27:29.557Z,154214.81
2023-04-16T11:30:05.166Z,154255.06
2023-04-16T11:32:43.760Z,154349.97
2023-04-16T11:35:20.231Z,154239.44
2023-04-16T11:37:51.969Z,154187.50
2023-04-16T11:40:23.560Z,154114.75
2023-04-16T11:42:58.691Z,154144.63
2023-04-16T11:45:33.675Z,154178.41
2023-04-16T11:48:12.062Z,154304.44
2023-04-16T11:50:44.700Z,154314.84
2023-04-16T11:53:17.258Z,154318.75
2023-04-16T11:58:23.915Z,154249.88
2023-04-16T12:01:10.977Z,154217.38
2023-04-16T12:03:50.068Z,154242.06
2023-04-16T12:06:24.515Z,154274.56
2023-04-16T12:08:56.177Z,154321.38
2023-04-16T12:11:42.741Z,154305.72
2023-04-16T12:14:16.964Z,154269.38
2023-04-16T12:16:52.342Z,154199.19
2023-04-16T12:19:53.482Z,154190.13
2023-04-16T12:22:37.275Z,154153.72
2023-04-16T12:25:16.313Z,154208.28
2023-04-16T12:27:58.518Z,154155.00
2023-04-16T12:30:34.008Z,154151.16
2023-04-16T12:33:26.976Z,154136.88
2023-04-16T12:36:08.290Z,154175.84
2023-04-16T12:38:44.726Z,154179.69
2023-04-16T12:41:19.992Z,154217.38
2023-04-16T12:43:53.609Z,154238.16
2023-04-16T12:46:27.457Z,154205.72
2023-04-16T12:49:00.596Z,154240.78
2023-04-16T12:51:35.449Z,154317.47
2023-04-16T12:54:08.818Z,154314.84
2023-04-16T12:56:44.156Z,154333.03
2023-04-16T12:59:15.559Z,154313.50
2023-04-16T13:01:48.128Z,154309.66
2023-04-16T13:04:19.791Z,154236.88
2023-04-16T13:06:55.469Z,154229.06
2023-04-16T13:09:28.349Z,154192.69
2023-04-16T13:12:00.741Z,154251.16
2023-04-16T13:14:32.287Z,154217.38
2023-04-16T13:17:08.412Z,154275.84
2023-04-16T13:19:39.512Z,154247.25
2023-04-16T13:22:15.215Z,154283.63
2023-04-16T13:24:47.768Z,154335.66
2023-04-16T13:27:21.263Z,154273.22
2023-04-16T13:29:55.731Z,154296.63
2023-04-16T13:32:29.664Z,154268.03
2023-04-16T13:35:01.242Z,154307.03
2023-04-16T13:37:39.253Z,154223.88
2023-04-16T13:40:14.173Z,154243.34
2023-04-16T13:42:48.330Z,154260.28
2023-04-16T13:45:20.847Z,154231.69
2023-04-16T13:47:53.905Z,154225.19
2023-04-16T13:50:25.221Z,154245.97
2023-04-16T13:52:59.062Z,154245.97
2023-04-16T13:55:31.795Z,154309.66
2023-04-16T13:58:07.840Z,154283.63
2023-04-16T14:00:38.959Z,154252.47
2023-04-16T14:03:10.400Z,154304.44
2023-04-16T14:05:46.552Z,154292.72
2023-04-16T14:08:55.422Z,154286.25
2023-04-16T14:12:05.307Z,154338.25
2023-04-16T14:15:01.670Z,154301.81
2023-04-16T14:17:54.340Z,154307.03
2023-04-16T14:20:45.931Z,154347.34
2023-04-16T14:23:29.862Z,154361.66
2023-04-16T14:26:31.915Z,154312.22
2023-04-16T14:29:25.660Z,154294.00
2023-04-16T14:32:26.317Z,154333.03
2023-04-16T14:35:17.574Z,154359.06
2023-04-16T14:38:20.890Z,154370.75
2023-04-16T14:41:45.464Z,154374.66
2023-04-16T14:53:39.813Z,154320.09
2023-04-16T14:56:43.298Z,154399.34
2023-04-16T14:59:50.767Z,154394.16
2023-04-16T15:02:39.260Z,154378.50
2023-04-16T15:05:31.932Z,154375.94
2023-04-16T15:08:23.633Z,154385.06
2023-04-16T15:10:57.301Z,154348.63
2023-04-16T15:13:36.375Z,154355.16
2023-04-16T15:16:07.545Z,154382.44
2023-04-16T15:18:40.500Z,154330.47
2023-04-16T15:21:12.582Z,154281.03
2023-04-16T15:23:43.090Z,154269.38
2023-04-16T15:26:13.251Z,154274.56
2023-04-16T15:28:43.457Z,154264.13
2023-04-16T15:31:14.308Z,154300.53
2023-04-16T15:33:47.330Z,154258.94
2023-04-16T15:36:18.453Z,154308.31
2023-04-16T15:38:48.730Z,154312.22
2023-04-16T15:41:22.058Z,154296.63
2023-04-16T15:43:52.442Z,154305.72
2023-04-16T15:46:22.746Z,154262.84
2023-04-16T15:48:55.591Z,154301.81
2023-04-16T15:51:27.442Z,154265.47
2023-04-16T15:53:57.872Z,154297.91
2023-04-16T15:56:28.728Z,154307.03
2023-04-16T15:58:58.893Z,154256.38
2023-04-16T16:01:29.126Z,154268.03
2023-04-16T16:04:12.020Z,154235.59
2023-04-16T16:06:42.534Z,154222.56
2023-04-16T16:09:15.618Z,154221.28
2023-04-16T16:11:58.171Z,154207.00
2023-04-16T16:14:28.570Z,154192.69
2023-04-16T16:16:58.792Z,154162.84
2023-04-16T16:19:31.867Z,154152.44
2023-04-16T16:22:02.400Z,154138.16
2023-04-16T16:24:33.056Z,154134.25
2023-04-16T16:27:03.255Z,154113.47
2023-04-16T16:29:33.516Z,154081.03
2023-04-16T16:32:04.399Z,154084.91
2023-04-16T16:34:37.658Z,154083.63
2023-04-16T16:37:08.085Z,154092.72
2023-04-16T16:39:38.961Z,154043.38
2023-04-16T16:42:09.552Z,154047.28
2023-04-16T16:44:40.117Z,154034.28
2023-04-16T16:47:10.412Z,154004.38
2023-04-16T16:49:43.815Z,153988.78
2023-04-16T16:52:16.939Z,154004.38
2023-04-16T16:54:47.132Z,153965.41
2023-04-16T16:57:17.516Z,153943.38
2023-04-16T16:59:47.879Z,153910.91
2023-04-16T17:02:18.174Z,153899.22
2023-04-16T17:04:52.118Z,153860.28
2023-04-16T17:07:22.396Z,153830.44
2023-04-16T17:09:52.701Z,153821.34
2023-04-16T17:12:23.881Z,153808.41
2023-04-16T17:14:56.135Z,153800.59
2023-04-16T17:17:26.548Z,153796.69
2023-04-16T17:20:01.416Z,153769.47
2023-04-16T17:22:31.940Z,153761.66
2023-04-16T17:25:06.310Z,153791.50
2023-04-16T17:27:37.335Z,153743.53
2023-04-16T17:30:14.965Z,153730.53
2023-04-16T17:32:50.597Z,153713.66
2023-04-16T17:35:26.470Z,153694.19
2023-04-16T17:37:58.518Z,153691.56
2023-04-16T17:40:31.738Z,153666.94
2023-04-16T17:43:04.293Z,153668.22
2023-04-16T17:45:43.909Z,153655.28
2023-04-16T17:48:20.574Z,153639.72
2023-04-16T17:50:53.534Z,153653.94
2023-04-16T17:53:23.724Z,153620.25
2023-04-16T17:55:58.551Z,153590.44
2023-04-16T17:58:35.355Z,153615.06
2023-04-16T18:01:06.510Z,153616.34
2023-04-16T18:03:37.415Z,153590.44
2023-04-16T18:06:14.232Z,153580.06
2023-04-16T18:08:48.818Z,153574.81
2023-04-16T18:11:20.761Z,153570.97
2023-04-16T18:13:53.107Z,153573.53
2023-04-16T18:16:23.470Z,153574.81
2023-04-16T18:18:53.781Z,153541.16
2023-04-16T18:21:26.598Z,153543.72
2023-04-16T18:23:56.869Z,153530.78
2023-04-16T18:26:29.713Z,153534.63
2023-04-16T18:29:03.917Z,153508.72
2023-04-16T18:31:34.362Z,153503.53
2023-04-16T18:34:05.562Z,153502.25
2023-04-16T18:36:38.777Z,153468.53
2023-04-16T18:39:09.200Z,153456.88
2023-04-16T18:41:40.334Z,153440.00
2023-04-16T18:44:11.168Z,153420.56
2023-04-16T18:46:43.112Z,153418.00
2023-04-16T18:49:15.682Z,153401.13
2023-04-16T18:51:51.304Z,153384.28
2023-04-16T18:54:22.384Z,153363.56
2023-04-16T18:56:53.468Z,153373.91
2023-04-16T18:59:28.523Z,153360.94
2023-04-16T19:01:59.687Z,153346.69
2023-04-16T19:04:32.614Z,153333.69
2023-04-16T19:07:19.022Z,153320.72
2023-04-16T19:09:49.310Z,153310.38
2023-04-16T19:12:20.117Z,153285.75
2023-04-16T19:14:50.328Z,153296.09
2023-04-16T19:17:21.053Z,153285.75
2023-04-16T19:19:55.221Z,153290.94
2023-04-16T19:22:28.018Z,153274.09
2023-04-16T19:24:58.238Z,153254.66
2023-04-16T19:27:34.410Z,153265.03
2023-04-16T19:30:04.935Z,153245.59
2023-04-16T19:32:36.880Z,153224.88
2023-04-16T19:35:14.366Z,153222.25
2023-04-16T19:37:50.744Z,153198.97
2023-04-16T19:40:21.432Z,153196.34
2023-04-16T19:42:51.866Z,153191.16
2023-04-16T19:45:28.457Z,153176.91
2023-04-16T19:48:01.716Z,153180.81
2023-04-16T19:50:32.195Z,153173.03
2023-04-16T19:53:07.387Z,153162.66
2023-04-16T19:55:42.210Z,153158.78
2023-04-16T19:58:12.875Z,153144.56
2023-04-16T20:00:43.827Z,153147.13
2023-04-16T20:03:17.423Z,153148.41
2023-04-16T20:05:50.742Z,153147.13
2023-04-16T20:08:24.687Z,153141.94
2023-04-16T20:10:56.674Z,153147.13
2023-04-16T20:13:27.012Z,153128.97
2023-04-16T20:15:58.101Z,153132.88
2023-04-16T20:18:42.177Z,153135.50
2023-04-16T20:21:12.853Z,153135.50
2023-04-16T20:23:50.087Z,153135.50
2023-04-16T20:26:21.290Z,153122.53
2023-04-16T20:28:53.530Z,153122.53
2023-04-16T20:31:24.359Z,153127.69
2023-04-16T20:33:54.754Z,153130.31
2023-04-16T20:36:25.106Z,153128.97
2023-04-16T20:38:59.644Z,153128.97
2023-04-16T20:41:30.861Z,153118.63
2023-04-16T20:44:05.422Z,153118.63
2023-04-16T20:46:36.602Z,153109.59
2023-04-16T20:49:08.058Z,153100.53
2023-04-16T20:51:38.645Z,153116.06
2023-04-16T20:54:11.589Z,153114.78
2023-04-16T20:56:41.868Z,153114.78
2023-04-16T20:59:13.507Z,153110.88
2023-04-16T21:01:43.736Z,153103.09
2023-04-16T21:04:14.093Z,153105.69
2023-04-16T21:06:44.389Z,153100.53
2023-04-16T21:09:17.172Z,153085.00
2023-04-16T21:11:47.463Z,153083.66
2023-04-16T21:14:17.750Z,153075.91
2023-04-16T21:16:47.972Z,153070.75
2023-04-16T21:19:29.120Z,153066.84
2023-04-16T21:21:59.490Z,153053.88
2023-04-16T21:24:32.322Z,153059.06
2023-04-16T21:27:02.597Z,153046.13
2023-04-16T21:29:33.015Z,153056.50
2023-04-16T21:32:03.316Z,153047.41
2023-04-16T21:34:33.651Z,153042.25
2023-04-16T21:37:03.986Z,153034.44
2023-04-16T21:39:37.082Z,153025.44
2023-04-16T21:42:07.403Z,153057.78
2023-04-16T21:44:37.599Z,153031.88
2023-04-16T21:47:07.925Z,153015.03
2023-04-16T21:49:38.170Z,153015.03
2023-04-16T21:52:14.380Z,153028.00
2023-04-16T21:54:47.530Z,153033.16
2023-04-16T21:57:17.740Z,153024.09
2023-04-16T21:59:47.933Z,153044.81
2023-04-16T22:02:18.346Z,153042.25
2023-04-16T22:04:48.998Z,153030.59
2023-04-16T22:07:20.879Z,153046.13
2023-04-16T22:09:53.696Z,153047.41
2023-04-16T22:12:23.885Z,153068.13
2023-04-16T22:15:02.509Z,153056.50
2023-04-16T22:17:34.378Z,153057.78
2023-04-16T22:20:07.119Z,153048.69
2023-04-16T22:22:37.390Z,153031.88
2023-04-16T22:25:11.104Z,153048.69
2023-04-16T22:27:41.458Z,153029.28
2023-04-16T22:30:13.427Z,153039.63
2023-04-16T22:32:43.623Z,153033.16
2023-04-16T22:35:13.870Z,153031.88
2023-04-16T22:37:44.059Z,153021.53
2023-04-16T22:40:17.040Z,153022.81
2023-04-16T22:42:48.005Z,153018.91
2023-04-16T22:45:18.678Z,153029.28
2023-04-16T22:47:48.975Z,153024.09
2023-04-16T22:50:19.665Z,153003.38
2023-04-16T22:52:49.840Z,153000.81
2023-04-16T22:55:23.185Z,152994.31
2023-04-16T22:57:53.422Z,152961.97
2023-04-16T23:00:25.179Z,152956.81
2023-04-16T23:02:55.526Z,152939.91
2023-04-16T23:05:26.113Z,152930.84
2023-04-16T23:07:56.273Z,152930.84
2023-04-16T23:10:29.052Z,152917.91
2023-04-16T23:12:59.270Z,152916.63
2023-04-16T23:15:30.891Z,152911.41
2023-04-16T23:18:01.361Z,152907.56
2023-04-16T23:20:32.388Z,152904.97
2023-04-16T23:23:02.582Z,152897.22
2023-04-16T23:25:35.443Z,152886.88
2023-04-16T23:28:05.664Z,152875.19
2023-04-16T23:30:37.889Z,152864.84
2023-04-16T23:33:08.171Z,152857.06
2023-04-16T23:35:38.376Z,152835.06
2023-04-16T23:38:08.571Z,152854.50
2023-04-16T23:40:41.471Z,152818.28
2023-04-16T23:43:11.759Z,152831.19
2023-04-16T23:45:42.096Z,152822.13
2023-04-16T23:48:12.407Z,152815.66
2023-04-16T23:50:42.706Z,152797.53
2023-04-16T23:53:12.916Z,152792.34
2023-04-16T23:55:46.907Z,152796.25
2023-04-16T23:58:17.204Z,152783.34
